Airfield :
LOGIN :

Register | Disclaimer

   EN    FR    IT 

 










Legend :    VFR   Marginal VFR   IFR   Intensive IFR   Very Intensive IFR
Visi :
Ceiling :
>= 8 km
>= 3000ft
5 to 8 km
1000 to 3000 ft
1500m to 5 km
500 to 1000 ft
800 to 1500m
200 to 500 ft
< 800m
< 200 ft
Symbols :   Thunderstorms  Fog  Heavy snow  Heavy precipitations  Wind > 20 kt
SIGMETs :     Misc.  Thunderstorms  Icing  Turbulence  Mountain Waves  Volcanic Ashes






- Airport Elevation : 778 ft
- IATA code : BRQ


LKTB - Brno-Turany

CURRENT METAR :
  • 162130Z 09004KT 060V120 9999 FEW027 10/08 Q1015 NOSIG

EXPIRED METARs :
  • 162100Z 09005KT 9999 FEW027 09/08 Q1015 NOSIG
  • 162030Z 08007KT CAVOK 09/08 Q1015 NOSIG
  • 162000Z 09008KT CAVOK 09/08 Q1015 NOSIG
  • 161930Z 09008KT CAVOK 09/07 Q1015 NOSIG
  • 161900Z 08008KT CAVOK 09/07 Q1014 NOSIG

TAF TAF LKTB
Valid from the 16 at 18:00 until the 18 at 00:00 UTC


161700Z 1618/1800 15008KT CAVOK
BECMG 1620/1622 7000 -RA BKN025
PROB30
TEMPO 1622/1705 4000 RA BR BKN007
BECMG 1706/1709 15014G28KT CAVOK



MET'MAP, your aeronautical weather chart ! - Copyright ORBIFLY December 2007 - Disclaimer

ORBIFLY MET'MAP TEAM :

Programming & Development : Alexandra Zaïnal
Concept & Development : Baudouin d'Aumeries
Co-Development & Prog : Marc-Olivier Méhu
Technical & hardware support : Manuel Goepfert

Contact : metmap@orbifly.com




SOURCES & CREDITS :

   NOAA